Latest Weather Observations for Salmon Gums RS

IDW60801

Issued at 3:32 am WST Wednesday 1 June 2016 (issued every 30 minutes, with the page automatically refreshed every 10 minutes)

About weather observations | Map of weather stations | Latest weather observations for WA | Other Formats
Station Details ID: 012071 Name: SALMON GUMS RES.STN. Lat: -32.99 Lon: 121.62 Height: 249.0 m
Data from the previous 72 hours. | See also: Recent months at Salmon Gums RS
Date/Time
WST
Temp
°C
App
Temp
°C
Dew
Point
Rel
Hum
%
Delta-T
°C
Wind Press
QNH
hPa
Press
MSL
hPa
Rain
since 9 am
mm
Dir
 
Spd
km/h
Gust
km/h
Spd
kts
Gust
kts
01/03:30am 2.2 0.0 1.0 92 0.5 WSW 2 6 1 3 - - 0.0
01/03:00am 2.9 1.2 1.7 92 0.5 CALM 0 0 0 0 - - 0.0
01/02:30am 4.0 2.1 2.7 91 0.5 SSE 2 4 1 2 - - 0.0
01/02:00am 4.9 3.5 3.6 91 0.5 CALM 0 2 0 1 - - 0.0
01/01:30am 5.7 3.7 4.3 91 0.6 SSE 4 6 2 3 - - 0.0
01/01:00am 4.8 2.6 3.1 89 0.7 E 4 6 2 3 - - 0.0
01/12:30am 6.8 5.4 5.3 90 0.7 ESE 2 4 1 2 - - 0.0
01/12:00am 7.5 5.3 6.0 90 0.7 NE 7 11 4 6 - - 0.0
 
Date/Time
WST
Temp
°C
App
Temp
°C
Dew
Point
Rel
Hum
%
Delta-T
°C
Wind Press
QNH
hPa
Press
MSL
hPa
Rain
since 9 am
mm
Dir
 
Spd
km/h
Gust
km/h
Spd
kts
Gust
kts
31/11:30pm 7.7 4.7 6.2 90 0.7 NE 11 15 6 8 - - 0.0
31/11:00pm 6.7 4.5 5.2 90 0.7 NE 6 7 3 4 - - 0.0
31/10:30pm 4.1 1.3 2.3 88 0.7 ENE 6 6 3 3 - - 0.0
31/10:00pm 4.3 2.7 2.5 88 0.7 CALM 0 0 0 0 - - 0.0
31/09:30pm 4.7 3.1 2.6 86 0.9 CALM 0 0 0 0 - - 0.0
31/09:00pm 5.5 4.0 3.2 85 1.0 CALM 0 0 0 0 - - 0.0
31/08:30pm 5.7 3.5 3.2 84 1.1 ESE 4 6 2 3 - - 0.0
31/08:00pm 6.0 4.2 3.2 82 1.2 ESE 2 4 1 2 - - 0.0
31/07:30pm 7.3 4.9 4.3 81 1.3 SE 6 9 3 5 - - 0.0
31/07:00pm 7.4 4.9 3.5 76 1.7 SSE 6 7 3 4 - - 0.0
31/06:30pm 8.5 6.4 3.9 73 2.0 SE 4 7 2 4 - - 0.0
31/06:00pm 9.3 7.3 4.3 71 2.2 SSE 4 6 2 3 - - 0.0
31/05:30pm 10.4 7.9 4.5 67 2.7 S 7 9 4 5 - - 0.0
31/05:00pm 11.7 9.2 4.9 63 3.1 S 7 9 4 5 - - 0.0
31/04:30pm 13.6 10.9 5.5 58 3.9 SSE 9 13 5 7 - - 0.0
31/04:00pm 15.2 12.1 5.4 52 4.7 S 11 15 6 8 - - 0.0
31/03:30pm 16.3 14.5 5.6 49 5.2 S 4 7 2 4 - - 0.0
31/03:00pm 16.1 13.8 4.8 47 5.4 S 6 11 3 6 - - 0.0
31/02:30pm 16.1 14.1 4.2 45 5.6 SSW 4 6 2 3 - - 0.0
31/02:00pm 16.3 14.4 4.7 46 5.5 WNW 4 13 2 7 - - 0.0
31/01:30pm 15.9 14.0 4.9 48 5.3 NNE 4 7 2 4 - - 0.0
31/01:00pm 15.8 13.6 5.1 49 5.1 WNW 6 13 3 7 - - 0.0
31/12:30pm 15.8 13.1 5.7 51 4.9 NW 9 15 5 8 - - 0.0
31/12:00pm 14.9 12.5 5.4 53 4.6 NNW 7 17 4 9 - - 0.0
31/11:30am 14.9 12.0 6.7 58 4.0 NNW 11 15 6 8 - - 0.0
31/11:00am 14.4 11.9 6.5 59 3.9 N 9 19 5 10 - - 0.0
31/10:30am 13.6 10.7 6.7 63 3.4 N 11 17 6 9 - - 0.0
31/10:00am 12.6 10.0 6.0 64 3.2 N 9 17 5 9 - - 0.0
31/09:30am 12.1 9.9 6.4 68 2.7 NNE 7 13 4 7 - - 0.0
31/09:00am 10.5 8.7 7.0 79 1.7 N 6 9 3 5 - - 0.0
31/08:30am 7.9 5.8 6.8 93 0.5 NNW 7 11 4 6 - - 0.0
31/08:00am 5.1 2.5 4.4 95 0.3 NNW 7 9 4 5 - - 0.0
31/07:30am 0.6 -2.7 -0.1 95 0.3 N 7 9 4 5 - - 0.0
31/07:00am -2.0 -5.7 -2.7 95 0.1 NW 7 7 4 4 - - 0.0
31/06:30am -2.4 -5.9 -3.1 95 0.1 N 6 6 3 3 - - 0.0
31/06:00am -2.2 -5.3 -2.9 95 0.1 N 4 6 2 3 - - 0.0
31/05:30am -2.3 -5.1 -3.0 95 0.1 N 2 4 1 2 - - 0.0
31/05:00am -2.1 -4.5 -2.8 95 0.1 CALM 0 0 0 0 - - 0.0
31/04:30am -1.9 -4.2 -2.7 94 0.2 CALM 0 0 0 0 - - 0.0
31/04:00am -1.6 -4.7 -2.4 94 0.2 N 4 4 2 2 - - 0.0
31/03:30am -1.5 -3.8 -2.3 94 0.2 CALM 0 0 0 0 - - 0.0
31/03:00am -1.3 -3.6 -2.1 94 0.2 CALM 0 0 0 0 - - 0.0
31/02:30am -1.1 -3.3 -1.9 94 0.2 CALM 0 0 0 0 - - 0.0
31/02:00am -0.8 -3.0 -1.6 94 0.2 CALM 0 0 0 0 - - 0.0
31/01:30am -0.7 -2.9 -1.7 93 0.3 CALM 0 0 0 0 - - 0.0
31/01:00am -0.4 -2.6 -1.4 93 0.3 CALM 0 0 0 0 - - 0.0
31/12:30am 0.2 -1.9 -0.9 92 0.4 CALM 0 0 0 0 - - 0.0
31/12:00am 0.7 -1.3 -0.4 92 0.4 CALM 0 0 0 0 - - 0.0
 
Date/Time
WST
Temp
°C
App
Temp
°C
Dew
Point
Rel
Hum
%
Delta-T
°C
Wind Press
QNH
hPa
Press
MSL
hPa
Rain
since 9 am
mm
Dir
 
Spd
km/h
Gust
km/h
Spd
kts
Gust
kts
30/11:30pm 1.0 -1.0 -0.3 91 0.5 CALM 0 0 0 0 - - 0.0
30/11:00pm 2.0 0.1 0.7 91 0.5 CALM 0 0 0 0 - - 0.0
30/10:30pm 2.6 0.8 1.1 90 0.6 CALM 0 0 0 0 - - 0.0
30/10:00pm 3.5 1.8 1.7 88 0.7 CALM 0 0 0 0 - - 0.0
30/09:30pm 4.8 3.3 3.0 88 0.7 CALM 0 4 0 2 - - 0.0
30/09:00pm 7.0 5.5 4.8 86 1.0 ESE 2 6 1 3 - - 0.0
30/08:30pm 7.7 5.4 4.7 81 1.3 S 6 7 3 4 - - 0.0
30/08:00pm 9.6 7.5 6.0 78 1.7 S 6 9 3 5 - - 0.0
30/07:30pm 10.9 9.1 7.2 78 1.8 SSE 6 7 3 4 - - 0.0
30/07:00pm 11.0 9.0 7.3 78 1.8 SSE 7 9 4 5 - - 0.0
30/06:30pm 10.5 9.8 7.0 79 1.7 CALM 0 2 0 1 - - 0.0
30/06:00pm 10.5 8.9 6.5 76 1.9 S 4 6 2 3 - - 0.0
30/05:30pm 10.8 9.7 5.3 69 2.6 CALM 0 2 0 1 - - 0.0
30/05:00pm 11.2 9.1 5.7 69 2.6 ESE 6 6 3 3 - - 0.0
30/04:30pm 12.4 11.1 6.0 65 3.1 ESE 2 4 1 2 - - 0.0
30/04:00pm 12.7 11.0 6.1 64 3.2 ESE 4 6 2 3 - - 0.0
30/03:30pm 12.7 11.1 6.5 66 3.0 S 4 7 2 4 - - 0.0
30/03:00pm 12.7 10.8 6.5 66 3.0 S 6 9 3 5 - - 0.0
30/02:30pm 13.1 11.1 6.2 63 3.3 WSW 6 9 3 5 - - 0.0
30/02:00pm 12.8 11.4 5.7 62 3.4 SSW 2 4 1 2 - - 0.0
30/01:30pm 12.8 11.3 6.6 66 3.0 WSW 4 7 2 4 - - 0.0
30/01:00pm 12.8 10.6 6.2 64 3.2 SSW 7 9 4 5 - - 0.0
30/12:30pm 12.9 10.7 6.3 64 3.2 S 7 13 4 7 - - 0.0
30/12:00pm 12.7 11.5 6.3 65 3.1 SW 2 6 1 3 - - 0.0
30/11:30am 12.6 10.5 6.0 64 3.2 SW 6 13 3 7 - - 0.0
30/11:00am 12.4 9.5 6.5 67 2.8 SSW 11 17 6 9 - - 0.0
30/10:30am 11.9 10.2 8.2 78 1.8 SSW 7 13 4 7 - - 0.0
30/10:00am 10.7 9.9 9.6 93 0.6 SW 4 7 2 4 - - 0.0
30/09:30am 10.2 8.9 9.3 94 0.5 WSW 6 13 3 7 - - 0.0
30/09:00am 9.1 8.3 8.3 95 0.4 SSW 2 4 1 2 - - 0.2
30/08:30am 8.1 7.5 7.5 96 0.3 CALM 0 2 0 1 - - 0.2
30/08:00am 4.7 2.6 4.0 95 0.3 WNW 4 6 2 3 - - 0.2
30/07:30am 2.5 -0.5 1.8 95 0.3 N 7 7 4 4 - - 0.2
30/07:00am 1.7 -1.3 1.0 95 0.3 N 6 9 3 5 - - 0.2
30/06:30am 0.5 -2.3 -0.2 95 0.3 WNW 4 7 2 4 - - 0.2
30/06:00am 0.4 -2.0 -0.5 94 0.3 W 2 4 1 2 - - 0.2
30/05:30am 1.0 -2.1 0.1 94 0.3 W 6 7 3 4 - - 0.2
30/05:00am 2.7 -0.3 1.8 94 0.4 W 7 9 4 5 - - 0.2
30/04:30am 2.7 0.2 1.8 94 0.4 SW 4 6 2 3 - - 0.2
30/04:00am 3.5 0.8 2.6 94 0.4 SSW 6 7 3 4 - - 0.2
30/03:30am 3.9 1.6 3.0 94 0.4 WSW 4 6 2 3 - - 0.2
30/03:00am 5.2 2.6 4.2 93 0.4 WSW 7 11 4 6 - - 0.2
30/02:30am 5.8 3.3 4.9 94 0.4 WSW 7 9 4 5 - - 0.2
30/02:00am 5.3 2.4 4.4 94 0.4 WSW 9 13 5 7 - - 0.0
30/01:30am 0.7 -2.7 -0.3 93 0.4 WSW 7 9 4 5 - - 0.0
30/01:00am 0.9 -2.2 0.0 94 0.3 WSW 6 7 3 4 - - 0.0
30/12:30am 0.6 -2.2 -0.4 93 0.4 WNW 4 6 2 3 - - 0.0
30/12:00am 1.2 -1.5 0.0 92 0.4 W 4 4 2 2 - - 0.0
 
Date/Time
WST
Temp
°C
App
Temp
°C
Dew
Point
Rel
Hum
%
Delta-T
°C
Wind Press
QNH
hPa
Press
MSL
hPa
Rain
since 9 am
mm
Dir
 
Spd
km/h
Gust
km/h
Spd
kts
Gust
kts
29/11:30pm 1.5 -1.5 0.5 93 0.4 NNW 6 6 3 3 - - 0.0
29/11:00pm 1.6 -1.1 0.4 92 0.5 SW 4 6 2 3 - - 0.0
29/10:30pm 2.5 0.0 1.3 92 0.5 SW 4 6 2 3 - - 0.0
29/10:00pm 2.5 -0.1 1.2 91 0.5 WSW 4 4 2 2 - - 0.0
29/09:30pm 2.8 0.3 1.3 90 0.6 WSW 4 6 2 3 - - 0.0
29/09:00pm 4.1 1.4 2.5 89 0.7 W 6 6 3 3 - - 0.0
29/08:30pm 4.3 1.9 2.2 86 0.9 WSW 4 6 2 3 - - 0.0
29/08:00pm 6.7 4.7 4.2 84 1.1 W 4 6 2 3 - - 0.0
29/07:30pm 8.6 6.8 5.2 79 1.5 SW 4 6 2 3 - - 0.0
29/07:00pm 8.9 7.1 5.3 78 1.6 WSW 4 7 2 4 - - 0.0
29/06:30pm 10.4 8.8 6.4 76 1.9 SW 4 7 2 4 - - 0.0
29/06:00pm 11.1 9.3 7.2 77 1.9 SW 6 7 3 4 - - 0.0
29/05:30pm 11.2 9.4 7.1 76 2.0 SSW 6 13 3 7 - - 0.0
29/05:00pm 11.4 8.8 7.7 78 1.8 SSW 11 15 6 8 - - 0.0
29/04:30pm 11.9 8.8 7.4 74 2.2 SSW 13 20 7 11 - - 0.0
29/04:00pm 12.4 8.7 8.1 75 2.1 SSW 17 26 9 14 - - 0.0
29/03:30pm 13.4 10.3 8.9 74 2.3 SSW 15 22 8 12 - - 0.0
29/03:00pm 12.4 8.6 8.9 79 1.8 SSW 19 28 10 15 - - 0.0
29/02:30pm 14.2 10.1 7.9 66 3.2 SSW 19 24 10 13 - - 0.0
29/02:00pm 13.2 9.9 9.6 79 1.9 SW 17 28 9 15 - - 0.0
29/01:30pm 14.2 11.4 8.6 69 2.9 WSW 13 22 7 12 - - 0.0
29/01:00pm 14.4 11.1 8.1 66 3.2 SW 15 22 8 12 - - 0.0
29/12:30pm 13.3 11.1 9.5 78 2.0 SW 11 20 6 11 - - 0.0
29/12:00pm 13.2 9.5 9.3 77 2.0 SW 19 28 10 15 - - 0.0
29/11:30am 11.6 7.8 9.2 85 1.2 SW 19 30 10 16 - - 0.0
29/11:00am 12.7 9.3 9.0 78 1.9 WSW 17 26 9 14 - - 0.0
29/10:30am 12.7 10.2 9.7 82 1.6 WSW 13 24 7 13 - - 0.0
29/10:00am 11.3 8.2 9.0 86 1.2 WSW 15 22 8 12 - - 0.0
29/09:30am 10.8 7.8 9.1 89 0.9 WSW 15 26 8 14 - - 0.0
29/09:00am 10.2 7.8 8.6 90 0.8 W 11 17 6 9 - - 0.2
29/08:30am 8.8 5.7 7.4 91 0.7 W 13 20 7 11 - - 0.2
29/08:00am 7.6 4.7 6.5 93 0.5 WNW 11 15 6 8 - - 0.2
29/07:30am 6.2 3.4 5.2 93 0.4 WNW 9 15 5 8 - - 0.2
29/07:00am 5.6 2.7 4.6 93 0.4 WNW 9 13 5 7 - - 0.2
29/06:30am 5.5 2.6 4.5 93 0.4 WNW 9 11 5 6 - - 0.0
29/06:00am 5.5 2.5 4.3 92 0.5 NW 9 13 5 7 - - 0.0
29/05:30am 5.9 3.4 4.7 92 0.5 WNW 7 11 4 6 - - 0.0
29/05:00am 5.8 3.3 4.6 92 0.5 WNW 7 11 4 6 - - 0.0
29/04:30am 5.6 3.0 4.2 91 0.6 WNW 7 11 4 6 - - 0.0
29/04:00am 6.2 3.7 4.8 91 0.6 NW 7 11 4 6 - - 0.0

Other Formats:

Comma delimited format used in spreadsheet applications
http://www.bom.gov.au/fwo/IDW60801/IDW60801.95639.axf

JavaScript Object Notation format (JSON) in row-major order
http://www.bom.gov.au/fwo/IDW60801/IDW60801.95639.json